Time;durP1;ratioP1;P1;durP2;ratioP2;P2;SDS_P1;SDS_P2;PMS_P1;PMS_P2;Temp;Humidity;BMP_temperature;BMP_pressure;BME280_temperature;BME280_humidity;BME280_pressure;Samples;Min_cycle;Max_cycle;Signal;HPM_P1;HPM_P2
2023/06/26 00:01:33;;;;;;;11.70;4.95;;;;;;;24.45;83.68;99336.69;4979312;28;20043;-67
2023/06/26 00:04:00;;;;;;;9.27;5.35;;;;;;;24.35;83.82;99344.75;4966285;28;20043;-67
2023/06/26 00:06:26;;;;;;;26.15;12.00;;;;;;;24.50;83.52;99346.72;4960703;28;20041;-66
2023/06/26 00:08:55;;;;;;;11.00;5.85;;;;;;;24.58;84.12;99340.00;4960297;28;20871;-67
2023/06/26 00:11:21;;;;;;;10.32;5.07;;;;;;;24.59;84.85;99338.94;4957266;29;20351;-67
2023/06/26 00:13:47;;;;;;;10.75;5.70;;;;;;;24.53;85.54;99340.78;4957798;28;20432;-65
2023/06/26 00:16:13;;;;;;;10.68;5.63;;;;;;;24.52;85.61;99337.28;4960614;28;20027;-68
2023/06/26 00:18:38;;;;;;;8.75;6.10;;;;;;;24.48;86.03;99330.75;4959565;28;20246;-67
2023/06/26 00:21:04;;;;;;;9.68;5.25;;;;;;;24.45;85.16;99336.69;4958274;28;20035;-66
2023/06/26 00:23:30;;;;;;;11.07;5.90;;;;;;;24.18;86.16;99339.47;4957052;28;20039;-65
2023/06/26 00:25:56;;;;;;;12.15;5.75;;;;;;;23.94;87.44;99338.22;4960046;28;20066;-65
2023/06/26 00:28:22;;;;;;;12.98;6.95;;;;;;;23.88;87.69;99340.03;4956975;28;20058;-65
2023/06/26 00:30:47;;;;;;;12.38;5.90;;;;;;;24.02;87.42;99340.44;4958823;28;20047;-67
2023/06/26 00:33:12;;;;;;;12.13;6.03;;;;;;;23.94;87.94;99340.13;4963910;28;20235;-67
2023/06/26 00:35:38;;;;;;;12.57;6.53;;;;;;;23.93;88.56;99339.31;4963278;28;20035;-65
2023/06/26 00:38:03;;;;;;;10.23;6.25;;;;;;;23.99;88.45;99340.16;4962389;28;20043;-67
2023/06/26 00:40:29;;;;;;;10.88;6.22;;;;;;;24.03;87.90;99341.25;4962633;28;20039;-66
2023/06/26 00:42:55;;;;;;;12.23;6.43;;;;;;;23.98;88.24;99342.03;4962985;28;20336;-67
2023/06/26 00:45:20;;;;;;;10.55;5.90;;;;;;;23.96;88.70;99332.56;4963511;28;20038;-67
2023/06/26 00:47:46;;;;;;;9.77;6.40;;;;;;;23.96;88.53;99330.66;4961946;28;20043;-67
2023/06/26 00:50:13;;;;;;;12.43;6.13;;;;;;;24.04;88.52;99337.50;4960056;29;20118;-67
2023/06/26 00:52:39;;;;;;;12.88;6.97;;;;;;;24.13;87.63;99335.94;4963599;28;20069;-65
2023/06/26 00:55:05;;;;;;;16.77;6.82;;;;;;;24.03;88.12;99338.56;4962532;28;20114;-68
2023/06/26 00:57:31;;;;;;;11.20;7.53;;;;;;;23.99;88.12;99329.34;4962788;28;20031;-65
2023/06/26 00:59:57;;;;;;;14.27;6.70;;;;;;;24.12;87.31;99321.59;4962551;28;20212;-65
2023/06/26 01:02:22;;;;;;;12.57;6.38;;;;;;;24.24;86.75;99331.41;4967527;28;20034;-67
2023/06/26 01:04:49;;;;;;;12.27;6.78;;;;;;;24.22;86.93;99334.38;4924869;28;1128219;-67
2023/06/26 01:07:18;;;;;;;14.38;6.90;;;;;;;24.25;86.36;99325.72;4963323;28;20027;-65
2023/06/26 01:09:46;;;;;;;17.70;7.35;;;;;;;24.24;85.91;99318.69;4964758;28;20058;-67
2023/06/26 01:12:11;;;;;;;12.90;7.15;;;;;;;24.30;85.54;99325.78;4963446;28;20276;-68
2023/06/26 01:14:37;;;;;;;11.85;6.35;;;;;;;24.33;85.08;99317.16;4964017;28;20047;-67
2023/06/26 01:17:03;;;;;;;15.30;8.05;;;;;;;24.26;85.61;99321.13;4961468;29;20229;-66
2023/06/26 01:19:33;;;;;;;15.48;7.78;;;;;;;24.19;85.88;99316.75;4962533;28;20035;-67
2023/06/26 01:22:14;;;;;;;13.70;7.25;;;;;;;24.24;85.51;99315.97;4964183;28;20332;-66
2023/06/26 01:25:00;;;;;;;16.00;7.25;;;;;;;24.27;86.15;99315.50;4963659;28;20035;-66
2023/06/26 01:27:27;;;;;;;17.48;8.18;;;;;;;24.28;86.22;99295.47;4960777;28;20035;-67
2023/06/26 01:29:54;;;;;;;18.55;10.13;;;;;;;24.24;85.62;99307.88;4962417;28;20035;-66
2023/06/26 01:32:20;;;;;;;16.52;8.40;;;;;;;24.20;85.89;99306.75;4963648;28;20055;-67
2023/06/26 01:34:45;;;;;;;23.10;11.20;;;;;;;24.25;85.49;99306.78;4962046;28;20252;-68
2023/06/26 01:37:11;;;;;;;32.78;16.38;;;;;;;23.93;87.17;99301.44;4967014;28;20047;-65
2023/06/26 01:39:36;;;;;;;35.03;16.25;;;;;;;24.06;86.60;99303.69;4962892;28;20041;-67
2023/06/26 01:42:02;;;;;;;28.00;13.48;;;;;;;24.12;86.09;99296.44;4963497;28;20043;-65
2023/06/26 01:44:35;;;;;;;23.70;11.32;;;;;;;23.95;86.50;99299.28;4961625;28;20050;-66
2023/06/26 01:47:04;;;;;;;20.33;9.75;;;;;;;23.90;86.88;99301.94;4960611;29;20085;-66
2023/06/26 01:49:47;;;;;;;19.80;9.57;;;;;;;23.96;86.95;99306.34;4961011;28;20360;-65
2023/06/26 01:52:35;;;;;;;20.50;10.93;;;;;;;23.72;87.88;99305.84;4962540;28;20043;-65
2023/06/26 01:55:23;;;;;;;21.80;11.30;;;;;;;23.81;87.70;99303.50;4962514;28;20062;-67
2023/06/26 01:57:54;;;;;;;22.48;11.20;;;;;;;23.77;87.60;99305.91;4960673;28;20144;-67
2023/06/26 02:00:21;;;;;;;20.85;10.45;;;;;;;23.79;87.91;99306.44;4964065;28;20051;-66
2023/06/26 02:02:47;;;;;;;14.30;8.38;;;;;;;23.77;88.34;99307.78;4962864;28;20063;-67
2023/06/26 02:05:13;;;;;;;15.90;8.50;;;;;;;23.72;88.67;99307.75;4964175;28;20143;-67
2023/06/26 02:07:39;;;;;;;16.20;9.27;;;;;;;23.75;88.53;99299.13;4963109;28;20042;-67
2023/06/26 02:10:05;;;;;;;20.70;9.20;;;;;;;23.81;88.15;99307.00;4961741;28;20035;-67
2023/06/26 02:12:30;;;;;;;17.73;7.82;;;;;;;23.79;88.10;99303.75;4959800;28;20303;-67
2023/06/26 02:14:56;;;;;;;15.50;8.07;;;;;;;23.79;88.44;99311.03;4960486;28;20360;-67
2023/06/26 02:17:21;;;;;;;15.55;8.00;;;;;;;23.84;88.19;99313.78;4963222;28;20328;-68
2023/06/26 02:19:49;;;;;;;20.23;8.32;;;;;;;23.87;87.85;99313.25;4962072;28;20043;-67
2023/06/26 02:22:16;;;;;;;13.65;8.25;;;;;;;23.94;87.59;99303.06;4966143;28;20067;-65
2023/06/26 02:24:43;;;;;;;17.10;8.15;;;;;;;23.97;87.36;99309.84;4960815;28;20054;-67
2023/06/26 02:27:09;;;;;;;14.48;8.48;;;;;;;23.99;86.75;99307.69;4959989;28;20031;-67
2023/06/26 02:29:35;;;;;;;15.63;7.78;;;;;;;23.96;86.83;99300.94;4961318;28;20049;-65
2023/06/26 02:32:00;;;;;;;13.95;8.20;;;;;;;23.85;88.00;99297.31;4962431;28;20320;-65
2023/06/26 02:34:26;;;;;;;15.60;7.50;;;;;;;23.90;87.99;99296.53;4962233;28;20035;-67
2023/06/26 02:36:54;;;;;;;14.15;7.95;;;;;;;23.83;87.82;99299.44;4962792;28;20425;-65
2023/06/26 02:39:20;;;;;;;14.93;7.32;;;;;;;23.76;87.42;99306.97;4961946;28;20134;-65
2023/06/26 02:41:45;;;;;;;12.25;7.32;;;;;;;23.76;87.47;99309.66;4959678;29;20043;-66
2023/06/26 02:44:12;;;;;;;17.90;7.82;;;;;;;23.70;87.46;99305.31;4960264;28;20350;-67
2023/06/26 02:46:37;;;;;;;13.27;6.38;;;;;;;23.63;86.34;99306.59;4963610;28;20054;-65
2023/06/26 02:49:03;;;;;;;13.73;6.72;;;;;;;23.48;86.74;99301.84;4961755;28;20437;-66
2023/06/26 02:51:28;;;;;;;13.32;7.65;;;;;;;23.33;88.28;99310.63;4961856;28;20175;-67
2023/06/26 02:53:54;;;;;;;13.82;7.28;;;;;;;23.18;89.34;99296.97;4960449;28;20054;-67
2023/06/26 02:56:19;;;;;;;13.82;7.68;;;;;;;23.07;89.90;99300.63;4961557;28;20038;-66
2023/06/26 02:58:44;;;;;;;14.95;9.13;;;;;;;23.00;90.64;99305.41;4961693;28;20039;-65
2023/06/26 03:01:10;;;;;;;14.82;8.45;;;;;;;22.97;91.08;99303.22;4961860;28;20045;-65
2023/06/26 03:03:40;;;;;;;15.02;7.85;;;;;;;23.01;91.17;99305.16;4961730;28;20366;-68
2023/06/26 03:06:07;;;;;;;16.20;9.10;;;;;;;22.98;91.55;99304.84;4961491;28;20047;-67
2023/06/26 03:08:33;;;;;;;14.25;7.50;;;;;;;23.07;91.50;99308.72;4961661;28;20035;-67
2023/06/26 03:10:58;;;;;;;15.00;9.10;;;;;;;23.14;91.58;99312.88;4961982;28;20054;-67
2023/06/26 03:13:23;;;;;;;13.80;7.15;;;;;;;23.22;91.74;99309.72;4962376;28;20046;-67
2023/06/26 03:15:49;;;;;;;15.57;8.65;;;;;;;23.28;91.59;99315.16;4962924;28;20366;-65
2023/06/26 03:18:15;;;;;;;17.30;8.73;;;;;;;23.32;91.74;99317.09;4961233;28;20440;-66
2023/06/26 03:20:40;;;;;;;16.00;8.90;;;;;;;23.39;91.41;99314.19;4962615;28;20041;-67
2023/06/26 03:23:06;;;;;;;15.88;8.85;;;;;;;23.41;91.94;99320.16;4961463;28;20035;-66
2023/06/26 03:25:31;;;;;;;16.45;9.27;;;;;;;23.46;91.65;99314.78;4962718;28;20035;-65
2023/06/26 03:27:57;;;;;;;14.82;9.75;;;;;;;23.47;92.29;99317.22;4961820;28;20035;-67
2023/06/26 03:30:22;;;;;;;15.77;8.88;;;;;;;23.38;93.21;99324.19;4975496;28;20054;-67
2023/06/26 03:32:48;;;;;;;17.73;10.63;;;;;;;23.52;91.20;99322.69;4964160;28;20035;-67
2023/06/26 03:35:13;;;;;;;21.42;10.85;;;;;;;23.63;91.40;99328.22;4960385;28;20073;-65
2023/06/26 03:37:40;;;;;;;15.00;9.68;;;;;;;23.70;90.65;99320.69;4960940;28;20042;-65
2023/06/26 03:40:06;;;;;;;16.58;9.77;;;;;;;23.71;90.95;99323.16;4959453;28;20043;-67
2023/06/26 03:42:31;;;;;;;17.10;9.75;;;;;;;23.77;90.73;99318.59;4959946;28;20031;-65
2023/06/26 03:44:57;;;;;;;17.77;9.20;;;;;;;23.85;91.21;99329.75;4961860;28;20042;-66
2023/06/26 03:47:22;;;;;;;17.17;11.10;;;;;;;23.87;91.68;99327.59;4960306;28;20035;-65
2023/06/26 03:49:47;;;;;;;15.55;9.80;;;;;;;23.93;89.91;99322.22;4960717;28;20086;-67
2023/06/26 03:52:13;;;;;;;17.48;10.45;;;;;;;23.97;90.48;99317.97;4960814;28;20050;-67
2023/06/26 03:54:38;;;;;;;18.45;9.98;;;;;;;24.06;90.40;99319.09;4959246;28;20565;-67
2023/06/26 03:57:04;;;;;;;16.63;10.55;;;;;;;24.14;90.22;99314.03;4960160;28;20039;-65
2023/06/26 03:59:29;;;;;;;16.15;10.48;;;;;;;24.20;87.85;99323.81;4961163;28;20103;-65
2023/06/26 04:01:55;;;;;;;16.98;9.07;;;;;;;24.29;87.26;99324.16;4960500;28;20098;-65
2023/06/26 04:04:20;;;;;;;15.38;9.63;;;;;;;24.32;87.14;99322.81;4961558;28;20354;-67
2023/06/26 04:06:46;;;;;;;16.08;9.50;;;;;;;24.38;86.78;99327.19;4959667;28;20047;-65
2023/06/26 04:09:11;;;;;;;17.85;9.77;;;;;;;24.32;87.49;99318.22;4960151;28;20225;-67
2023/06/26 04:11:37;;;;;;;16.60;9.25;;;;;;;24.30;87.68;99324.97;4961015;28;20055;-66
2023/06/26 04:14:02;;;;;;;16.98;9.07;;;;;;;24.42;87.75;99328.28;4959246;28;20042;-67
2023/06/26 04:16:28;;;;;;;17.40;11.38;;;;;;;24.38;87.44;99329.88;4958458;29;20073;-67
2023/06/26 04:18:56;;;;;;;16.80;10.32;;;;;;;24.28;88.47;99324.41;4959810;28;20240;-65
2023/06/26 04:21:23;;;;;;;14.57;9.80;;;;;;;24.41;86.81;99313.94;4957801;29;20046;-67
2023/06/26 04:23:49;;;;;;;14.43;10.15;;;;;;;24.28;88.10;99311.72;4958133;28;20106;-65
2023/06/26 04:26:14;;;;;;;17.98;10.00;;;;;;;24.21;87.93;99313.78;4961370;28;20046;-65
2023/06/26 04:28:41;;;;;;;16.13;9.40;;;;;;;24.26;88.25;99315.72;4962624;28;20335;-66
2023/06/26 04:31:06;;;;;;;16.50;9.80;;;;;;;24.39;87.85;99316.09;4959857;28;20218;-65
2023/06/26 04:33:32;;;;;;;17.98;10.57;;;;;;;24.30;88.53;99312.25;4958937;28;20046;-68
2023/06/26 04:35:58;;;;;;;17.05;10.07;;;;;;;24.37;88.72;99320.97;4961895;28;20046;-67
2023/06/26 04:38:23;;;;;;;20.25;11.68;;;;;;;24.50;89.23;99320.47;4961461;28;20066;-66
2023/06/26 04:40:49;;;;;;;24.73;13.65;;;;;;;24.72;88.56;99322.19;4961090;28;20240;-67
2023/06/26 04:43:15;;;;;;;23.48;14.80;;;;;;;24.75;87.99;99325.19;4960030;28;20027;-68
2023/06/26 04:45:40;;;;;;;24.75;17.15;;;;;;;24.89;87.27;99333.63;4960886;28;20241;-65
2023/06/26 04:48:06;;;;;;;18.80;12.60;;;;;;;24.94;86.71;99313.88;4960368;28;20039;-67
2023/06/26 04:50:33;;;;;;;12.23;8.90;;;;;;;25.17;83.68;99337.84;4960161;28;20035;-65
2023/06/26 04:52:59;;;;;;;15.73;9.55;;;;;;;25.18;83.92;99342.19;4960745;28;20168;-66
2023/06/26 04:55:24;;;;;;;12.13;9.68;;;;;;;25.13;83.09;99336.75;4961951;28;20280;-67
2023/06/26 04:57:51;;;;;;;13.43;9.70;;;;;;;25.19;83.13;99346.53;4959433;28;20341;-67
2023/06/26 05:00:16;;;;;;;15.95;10.43;;;;;;;25.21;83.79;99349.78;4960355;28;20234;-67
2023/06/26 05:02:42;;;;;;;13.82;9.82;;;;;;;25.40;83.46;99348.19;4959906;28;20058;-65
2023/06/26 05:05:07;;;;;;;14.32;10.35;;;;;;;25.59;80.96;99350.38;4960913;28;20360;-67
2023/06/26 05:07:33;;;;;;;13.73;10.43;;;;;;;25.54;82.56;99359.31;4958775;28;20027;-67
2023/06/26 05:09:59;;;;;;;15.02;9.95;;;;;;;25.90;80.62;99359.38;4977480;28;20043;-67
2023/06/26 05:12:24;;;;;;;15.05;11.30;;;;;;;26.00;81.01;99365.59;4977371;28;20046;-67
2023/06/26 05:14:49;;;;;;;14.30;10.98;;;;;;;25.89;81.25;99363.16;4984837;28;20046;-65
2023/06/26 05:17:15;;;;;;;14.70;11.63;;;;;;;25.75;80.84;99368.31;4995380;28;20365;-67
2023/06/26 05:19:40;;;;;;;14.73;11.70;;;;;;;25.83;81.68;99366.97;4980437;28;20047;-65
2023/06/26 05:22:07;;;;;;;16.60;10.95;;;;;;;25.57;80.19;99368.81;4981174;28;20365;-66
2023/06/26 05:24:36;;;;;;;14.15;11.05;;;;;;;25.42;82.26;99369.59;4981417;28;20085;-67
2023/06/26 05:27:02;;;;;;;15.55;11.05;;;;;;;25.41;81.86;99360.66;4980996;28;20380;-65
2023/06/26 05:29:28;;;;;;;21.17;12.05;;;;;;;25.30;82.99;99360.91;4981118;28;20220;-66
2023/06/26 05:31:56;;;;;;;15.13;10.88;;;;;;;25.51;83.23;99361.75;4980961;28;20043;-67
2023/06/26 05:34:23;;;;;;;16.20;10.13;;;;;;;25.48;83.97;99362.31;4980679;28;20323;-67
2023/06/26 05:36:51;;;;;;;17.58;11.73;;;;;;;25.39;84.66;99368.25;4980031;28;20035;-67
2023/06/26 05:39:17;;;;;;;16.10;11.57;;;;;;;25.40;84.42;99369.06;4981419;28;20038;-67
2023/06/26 05:41:46;;;;;;;17.63;10.90;;;;;;;25.28;85.40;99369.31;4981458;28;20405;-65
2023/06/26 05:44:11;;;;;;;13.63;10.13;;;;;;;25.40;86.15;99371.78;4980872;28;20043;-65
2023/06/26 05:46:37;;;;;;;19.35;11.93;;;;;;;25.35;85.70;99375.28;4981105;28;20041;-66
2023/06/26 05:49:02;;;;;;;14.75;10.05;;;;;;;25.49;84.51;99369.34;4980902;28;20050;-67
2023/06/26 05:51:28;;;;;;;15.07;11.68;;;;;;;25.44;85.21;99368.25;4980890;28;20069;-68
2023/06/26 05:53:54;;;;;;;16.70;11.90;;;;;;;25.42;86.32;99367.72;4980265;28;20085;-65
2023/06/26 05:56:20;;;;;;;15.73;11.38;;;;;;;25.43;85.57;99361.22;4980289;28;20039;-66
2023/06/26 05:58:46;;;;;;;17.73;12.10;;;;;;;25.48;86.13;99365.81;4980079;28;20336;-67
2023/06/26 06:01:11;;;;;;;19.92;12.82;;;;;;;25.40;86.59;99364.47;4980226;28;20099;-65
2023/06/26 06:03:37;;;;;;;15.38;11.88;;;;;;;25.28;86.19;99365.78;4980674;28;20031;-67
2023/06/26 06:06:03;;;;;;;20.73;12.73;;;;;;;25.44;85.82;99364.72;4980353;28;20069;-67
2023/06/26 06:08:29;;;;;;;16.08;11.27;;;;;;;25.51;86.08;99368.00;4980803;28;20102;-67
2023/06/26 06:10:54;;;;;;;16.08;12.07;;;;;;;25.34;85.91;99368.25;4980298;28;20045;-66
2023/06/26 06:13:19;;;;;;;17.25;11.98;;;;;;;25.39;85.59;99368.25;4978151;28;20043;-65
2023/06/26 06:15:45;;;;;;;18.13;11.20;;;;;;;25.55;84.71;99369.09;4970281;28;20322;-66
2023/06/26 06:18:10;;;;;;;15.55;11.45;;;;;;;25.64;83.93;99364.75;4975936;28;20027;-67
2023/06/26 06:20:36;;;;;;;17.00;10.70;;;;;;;25.74;84.05;99366.69;4976654;28;20204;-66
2023/06/26 06:23:01;;;;;;;17.40;11.20;;;;;;;25.74;81.40;99369.41;4974661;28;20344;-66
2023/06/26 06:25:27;;;;;;;13.93;10.45;;;;;;;25.62;81.30;99374.25;4976633;28;20035;-67
2023/06/26 06:27:52;;;;;;;16.42;10.35;;;;;;;25.72;80.89;99366.97;4974755;28;20057;-66
2023/06/26 06:30:18;;;;;;;16.42;10.88;;;;;;;25.69;79.25;99372.13;4975136;28;20034;-65
2023/06/26 06:32:43;;;;;;;18.45;10.80;;;;;;;25.78;80.06;99365.06;4975094;28;20146;-67
2023/06/26 06:35:09;;;;;;;14.85;10.35;;;;;;;25.84;79.95;99374.84;4976179;28;20064;-66
2023/06/26 06:37:38;;;;;;;16.85;10.95;;;;;;;25.72;79.18;99374.28;4974602;28;20164;-67
2023/06/26 06:40:06;;;;;;;17.17;10.50;;;;;;;25.72;79.18;99375.09;4974561;28;20089;-65
2023/06/26 06:42:32;;;;;;;15.27;10.70;;;;;;;25.67;80.38;99383.22;4975213;28;20101;-66
2023/06/26 06:44:58;;;;;;;16.88;9.95;;;;;;;25.78;79.13;99376.72;4975138;28;20031;-66
2023/06/26 06:47:23;;;;;;;15.15;10.13;;;;;;;25.65;79.49;99379.13;4975081;28;20046;-67
2023/06/26 06:49:49;;;;;;;13.02;9.35;;;;;;;25.74;80.04;99378.34;4974765;28;20042;-67
2023/06/26 06:52:14;;;;;;;15.88;9.55;;;;;;;25.91;79.58;99385.41;4973592;28;20078;-68
2023/06/26 06:55:05;;;;;;;17.95;10.13;;;;;;;25.91;81.57;99380.00;4974501;28;20209;-67
2023/06/26 06:57:30;;;;;;;14.60;10.07;;;;;;;26.11;81.03;99379.19;4974655;28;20330;-67
2023/06/26 06:59:56;;;;;;;15.30;10.77;;;;;;;26.29;78.83;99375.91;4973918;28;20109;-67
2023/06/26 07:02:21;;;;;;;15.57;10.32;;;;;;;26.44;77.37;99375.94;4974320;28;20042;-67
2023/06/26 07:04:46;;;;;;;12.00;10.00;;;;;;;26.60;75.88;99372.09;4973814;28;20061;-67
2023/06/26 07:07:14;;;;;;;15.05;10.25;;;;;;;26.59;74.58;99378.59;4974637;28;20042;-66
2023/06/26 07:09:39;;;;;;;14.98;10.20;;;;;;;26.62;74.73;99371.81;4974522;28;20074;-66
2023/06/26 07:12:05;;;;;;;12.45;9.65;;;;;;;26.96;71.94;99370.03;4975287;28;20043;-66
2023/06/26 07:14:30;;;;;;;13.40;9.15;;;;;;;27.57;66.97;99368.94;4974056;28;20332;-68
2023/06/26 07:16:56;;;;;;;11.50;8.98;;;;;;;28.16;64.49;99367.97;4974439;28;20053;-66
2023/06/26 07:19:21;;;;;;;10.55;8.00;;;;;;;28.49;60.22;99372.56;4974328;28;20562;-66
2023/06/26 07:21:47;;;;;;;10.85;8.25;;;;;;;28.52;59.55;99374.72;4974526;28;20041;-66
2023/06/26 07:24:12;;;;;;;13.38;8.93;;;;;;;28.40;62.61;99365.31;4975197;28;20031;-66
2023/06/26 07:26:38;;;;;;;11.82;8.88;;;;;;;28.30;64.09;99374.41;4974034;28;20050;-65
2023/06/26 07:29:03;;;;;;;11.57;8.43;;;;;;;28.45;61.91;99370.72;4974395;28;20039;-68
2023/06/26 07:31:29;;;;;;;11.02;7.72;;;;;;;28.88;58.93;99366.97;4971954;28;20101;-68
2023/06/26 07:33:54;;;;;;;12.00;8.85;;;;;;;28.94;58.55;99365.00;4974774;28;20049;-67
2023/06/26 07:36:20;;;;;;;12.82;8.10;;;;;;;28.75;59.20;99364.13;4974787;28;20034;-68
2023/06/26 07:38:45;;;;;;;11.38;8.82;;;;;;;28.95;58.64;99365.81;4975960;28;20053;-68
2023/06/26 07:41:11;;;;;;;13.30;8.77;;;;;;;28.86;59.71;99363.72;4973724;28;20031;-65
2023/06/26 07:43:36;;;;;;;11.77;8.80;;;;;;;28.97;59.70;99364.41;4974414;28;20343;-66
2023/06/26 07:46:01;;;;;;;11.68;8.30;;;;;;;29.25;57.13;99357.25;4971633;28;20053;-65
2023/06/26 07:48:27;;;;;;;9.43;7.60;;;;;;;29.53;55.25;99363.69;4974678;28;20050;-68
2023/06/26 07:50:53;;;;;;;10.38;7.18;;;;;;;29.54;55.07;99363.41;4973869;28;20435;-66
2023/06/26 07:53:19;;;;;;;9.20;6.97;;;;;;;29.53;54.02;99367.22;4974119;28;20038;-68
2023/06/26 07:55:44;;;;;;;8.30;6.47;;;;;;;29.52;52.06;99368.34;4973034;28;20042;-66
2023/06/26 07:58:10;;;;;;;9.52;7.18;;;;;;;29.63;51.69;99366.25;4973904;28;20051;-68
2023/06/26 08:00:35;;;;;;;9.00;6.70;;;;;;;29.55;52.44;99366.94;4972171;28;20640;-68
2023/06/26 08:03:00;;;;;;;9.18;7.20;;;;;;;29.64;53.31;99367.06;4974051;28;20026;-68
2023/06/26 08:05:26;;;;;;;10.50;7.05;;;;;;;30.09;51.53;99369.09;4971727;28;20047;-68
2023/06/26 08:07:52;;;;;;;8.07;6.47;;;;;;;30.32;49.88;99367.34;4973742;28;20035;-66
2023/06/26 08:10:17;;;;;;;8.00;7.20;;;;;;;30.38;48.38;99360.66;4974698;28;20034;-68
2023/06/26 08:12:44;;;;;;;9.52;6.28;;;;;;;30.64;48.12;99357.47;4972744;28;20057;-66
2023/06/26 08:15:11;;;;;;;8.80;6.63;;;;;;;30.54;47.72;99363.91;4973977;28;20232;-68
2023/06/26 08:17:37;;;;;;;8.27;6.38;;;;;;;30.12;48.60;99362.22;4974044;28;20427;-68
2023/06/26 08:20:03;;;;;;;10.13;6.70;;;;;;;29.96;48.32;99358.91;4975782;28;20349;-68
2023/06/26 08:22:29;;;;;;;8.07;6.47;;;;;;;30.13;49.59;99356.44;4973933;28;20068;-68
2023/06/26 08:24:54;;;;;;;9.45;6.15;;;;;;;30.25;49.19;99366.91;4974837;28;20333;-66
2023/06/26 08:27:20;;;;;;;6.70;6.00;;;;;;;30.51;47.91;99364.53;4973278;28;20345;-66
2023/06/26 08:29:45;;;;;;;7.55;5.88;;;;;;;30.34;48.96;99370.56;4974240;28;20043;-68
2023/06/26 08:32:11;;;;;;;8.15;6.63;;;;;;;30.22;48.97;99361.25;4973355;28;20027;-68
2023/06/26 08:34:36;;;;;;;9.52;6.18;;;;;;;30.07;48.46;99359.56;4974565;28;20046;-68
2023/06/26 08:37:02;;;;;;;7.53;5.90;;;;;;;30.11;48.61;99361.41;4972199;28;20034;-66
2023/06/26 08:39:28;;;;;;;7.55;6.03;;;;;;;30.07;49.17;99354.09;4973760;28;20038;-66
2023/06/26 08:41:53;;;;;;;14.20;6.85;;;;;;;30.40;46.42;99357.63;4975013;28;20049;-66
2023/06/26 08:44:24;;;;;;;7.90;5.20;;;;;;;30.59;45.75;99352.91;4973154;28;20026;-66
2023/06/26 08:46:51;;;;;;;6.95;4.90;;;;;;;30.83;45.68;99344.50;4975486;28;20173;-66
2023/06/26 08:49:27;;;;;;;7.13;5.45;;;;;;;31.04;47.27;99342.97;4973709;28;20030;-66
2023/06/26 08:52:02;;;;;;;6.97;5.13;;;;;;;30.83;46.68;99349.16;4973505;28;20392;-68
2023/06/26 08:54:34;;;;;;;10.60;6.45;;;;;;;30.66;47.82;99345.13;4975944;28;20042;-67
2023/06/26 08:57:01;;;;;;;8.55;5.95;;;;;;;30.68;48.47;99342.09;4977446;28;20038;-68
2023/06/26 08:59:28;;;;;;;6.68;5.47;;;;;;;30.73;48.80;99342.78;4973736;28;20286;-68
2023/06/26 09:01:53;;;;;;;7.90;5.38;;;;;;;30.62;46.45;99338.66;4976342;28;20325;-66
2023/06/26 09:04:19;;;;;;;7.07;5.68;;;;;;;30.74;47.11;99327.22;4975249;28;20035;-67
2023/06/26 09:06:44;;;;;;;7.22;5.60;;;;;;;30.80;47.31;99323.25;4976327;28;20046;-68
2023/06/26 09:09:10;;;;;;;7.55;5.97;;;;;;;30.69;46.98;99324.56;4976554;28;20034;-66
2023/06/26 09:11:35;;;;;;;8.23;5.35;;;;;;;30.52;49.05;99324.34;4976228;28;20043;-68
2023/06/26 09:14:04;;;;;;;8.20;5.70;;;;;;;30.44;47.90;99334.88;4974506;28;20030;-66
2023/06/26 09:16:30;;;;;;;7.40;5.80;;;;;;;30.29;49.38;99331.63;4975181;28;20394;-66
2023/06/26 09:18:56;;;;;;;6.53;5.50;;;;;;;30.12;48.22;99330.25;4977160;28;20320;-68
2023/06/26 09:21:24;;;;;;;7.13;5.50;;;;;;;29.98;49.49;99334.84;4975987;28;20046;-68
2023/06/26 09:23:50;;;;;;;9.55;5.63;;;;;;;29.79;49.21;99321.25;4976372;28;20038;-66
2023/06/26 09:26:16;;;;;;;7.85;5.78;;;;;;;29.43;49.43;99325.66;4975494;28;20043;-66
2023/06/26 09:28:43;;;;;;;6.53;5.82;;;;;;;29.31;49.58;99326.06;4974901;28;20034;-68
2023/06/26 09:31:10;;;;;;;7.68;5.82;;;;;;;29.33;50.71;99331.25;4977001;28;20321;-66
2023/06/26 09:33:38;;;;;;;18.58;13.27;;;;;;;29.33;50.45;99336.69;4973617;28;20264;-68
2023/06/26 09:36:19;;;;;;;37.28;23.77;;;;;;;29.21;49.74;99332.50;4977742;28;20109;-68
2023/06/26 09:38:44;;;;;;;9.27;8.25;;;;;;;29.22;50.24;99328.66;4977814;28;20058;-68
2023/06/26 09:41:10;;;;;;;10.07;6.78;;;;;;;29.27;50.26;99346.88;4976925;28;20243;-68
2023/06/26 09:43:45;;;;;;;6.97;5.10;;;;;;;29.22;52.75;99349.66;4976109;28;20089;-67
2023/06/26 09:46:16;;;;;;;8.02;5.38;;;;;;;29.06;53.99;99349.03;4977080;28;20204;-65
2023/06/26 09:48:41;;;;;;;8.30;5.65;;;;;;;29.11;55.50;99348.16;4975424;28;20037;-68
2023/06/26 09:51:07;;;;;;;6.15;3.95;;;;;;;28.80;55.18;99348.53;4974779;28;20232;-68
2023/06/26 09:53:35;;;;;;;10.02;3.65;;;;;;;28.43;54.72;99348.41;4974173;28;20324;-68
2023/06/26 09:56:05;;;;;;;5.22;3.45;;;;;;;28.46;53.51;99348.66;4974907;28;20034;-66
2023/06/26 09:58:32;;;;;;;4.53;2.95;;;;;;;28.27;54.04;99345.03;4974265;28;20224;-66
2023/06/26 10:00:58;;;;;;;5.60;3.22;;;;;;;28.16;54.79;99348.94;4975122;28;20043;-67
2023/06/26 10:03:23;;;;;;;4.53;2.80;;;;;;;28.02;55.06;99346.03;4975504;28;20034;-65
2023/06/26 10:05:49;;;;;;;4.22;2.92;;;;;;;27.91;56.99;99333.63;4975261;28;20057;-65
2023/06/26 10:08:17;;;;;;;5.32;3.67;;;;;;;27.88;55.42;99336.91;4974746;28;20320;-67
2023/06/26 10:10:45;;;;;;;7.05;2.78;;;;;;;27.79;53.88;99336.72;4973128;28;20371;-65
2023/06/26 10:13:18;;;;;;;4.15;2.50;;;;;;;27.71;52.69;99342.75;4973575;28;20035;-67
2023/06/26 10:15:46;;;;;;;4.78;2.72;;;;;;;27.68;53.79;99327.00;4975373;28;20070;-66
2023/06/26 10:18:13;;;;;;;4.95;2.83;;;;;;;27.79;55.28;99336.72;4975127;28;20498;-68
2023/06/26 10:20:40;;;;;;;3.55;2.80;;;;;;;27.86;55.59;99339.09;4975705;28;20043;-68
2023/06/26 10:23:07;;;;;;;3.53;2.88;;;;;;;28.05;56.84;99331.03;4975801;28;20045;-68
2023/06/26 10:25:40;;;;;;;5.10;2.97;;;;;;;28.31;54.78;99328.94;4969436;28;20094;-68
2023/06/26 10:28:08;;;;;;;3.70;2.67;;;;;;;28.55;52.31;99316.94;4974093;28;20057;-68
2023/06/26 10:30:36;;;;;;;4.55;2.67;;;;;;;28.66;51.73;99319.53;4974626;28;20045;-68
2023/06/26 10:33:03;;;;;;;3.88;3.05;;;;;;;28.71;51.37;99322.22;4974632;28;20097;-68
2023/06/26 10:35:31;;;;;;;5.60;3.40;;;;;;;28.78;50.89;99314.50;4974917;28;20057;-68
2023/06/26 10:38:06;;;;;;;4.35;3.50;;;;;;;28.83;50.94;99314.44;4974785;28;20062;-68
2023/06/26 10:40:45;;;;;;;4.78;3.40;;;;;;;29.02;49.83;99311.75;4977817;28;20074;-68
2023/06/26 10:43:13;;;;;;;4.00;3.60;;;;;;;28.95;51.70;99317.56;4974186;28;20137;-68
2023/06/26 10:45:52;;;;;;;5.22;3.45;;;;;;;28.34;55.16;99323.72;4978475;28;20050;-68
2023/06/26 10:48:17;;;;;;;6.53;3.38;;;;;;;27.56;57.77;99321.09;4978768;28;20027;-68
2023/06/26 10:50:46;;;;;;;5.97;3.40;;;;;;;27.24;57.82;99324.31;4978557;28;20228;-68
2023/06/26 10:53:15;;;;;;;5.00;3.50;;;;;;;27.33;55.93;99312.56;4979003;28;20026;-68
2023/06/26 10:55:56;;;;;;;5.03;3.13;;;;;;;27.41;56.21;99316.56;4979488;28;20046;-68
2023/06/26 10:58:34;;;;;;;4.45;3.60;;;;;;;27.70;54.46;99303.06;4978872;28;20110;-68
2023/06/26 11:01:14;;;;;;;5.65;3.40;;;;;;;27.57;54.87;99318.09;4979303;28;20230;-68
2023/06/26 11:03:42;;;;;;;5.22;3.47;;;;;;;27.17;64.83;99311.03;4978994;28;20045;-68
2023/06/26 11:06:11;;;;;;;5.53;3.72;;;;;;;26.98;61.59;99315.47;4979017;28;20050;-68
2023/06/26 11:08:53;;;;;;;6.68;4.00;;;;;;;26.86;65.07;99315.75;4978343;28;20324;-68
2023/06/26 11:11:19;;;;;;;5.03;4.47;;;;;;;26.75;64.86;99306.03;4979129;28;20097;-68
2023/06/26 11:13:46;;;;;;;5.88;4.03;;;;;;;26.87;67.37;99314.66;4979065;28;20102;-68
2023/06/26 11:16:14;;;;;;;6.22;4.30;;;;;;;26.87;65.78;99317.38;4978210;28;20041;-68
2023/06/26 11:18:40;;;;;;;5.13;4.05;;;;;;;26.95;64.16;99322.22;4978062;28;20109;-68
2023/06/26 11:21:10;;;;;;;8.15;4.45;;;;;;;26.86;66.96;99315.75;4978262;28;20102;-68
2023/06/26 11:23:37;;;;;;;6.65;4.97;;;;;;;26.65;72.79;99325.91;4978647;28;20047;-68